Data for 04/01/2014

Time Sea-Level Adjusted Pressure Absolute Pressure Temperature Relative Humidity Dew Point   
(mb) (inHg) (mb) (inHg) (C) (F) (%) (C) (F)
00:05 1012 29.88 841 24.83 -2.7 27.1 81 -5.6 21.9
00:10 1012 29.88 841 24.83 -2.8 27 81 -5.6 21.9
00:15 1012 29.88 841 24.83 -2.8 27 81 -5.7 21.8
00:20 1011 29.85 841 24.83 -2.8 26.9 81 -5.7 21.7
00:25 1011 29.85 841 24.83 -2.9 26.8 81 -5.8 21.6
00:30 1011 29.85 841 24.83 -2.9 26.7 81 -5.8 21.6
00:35 1011 29.85 840 24.81 -3 26.7 81 -5.7 21.7
00:40 1011 29.85 840 24.81 -3 26.7 81 -5.7 21.7
00:45 1011 29.85 840 24.81 -2.9 26.7 81 -5.8 21.6
00:50 1011 29.85 840 24.81 -3 26.6 81 -5.8 21.6
00:55 1011 29.85 840 24.81 -3.1 26.4 81 -5.9 21.4
01:00 1011 29.85 840 24.81 -3.1 26.4 81 -5.9 21.4
01:05 1011 29.85 840 24.81 -3.2 26.2 82 -6 21.3
01:10 1011 29.85 840 24.81 -3.3 26.1 82 -5.9 21.3
01:15 1011 29.85 840 24.81 -3.3 26 82 -6 21.3
01:20 1011 29.85 840 24.81 -3.3 26 82 -6 21.3
01:25 1011 29.85 840 24.81 -3.3 26 82 -5.9 21.4
01:30 1011 29.85 840 24.81 -3.4 25.9 83 -6 21.3
01:35 1011 29.85 840 24.81 -3.4 25.9 82 -6 21.2
01:40 1011 29.85 840 24.81 -3.4 25.9 82 -6.1 21.1
01:45 1011 29.85 840 24.81 -3.4 25.9 82 -6 21.2
01:50 1011 29.85 840 24.81 -3.4 25.8 82 -6.1 21.1
01:55 1011 29.85 840 24.81 -3.4 25.8 82 -6.1 21.1
02:00 1011 29.85 840 24.81 -3.5 25.7 82 -6.1 21
02:05 1011 29.85 840 24.81 -3.5 25.7 82 -6.1 21
02:10 1011 29.85 840 24.81 -3.6 25.6 82 -6.2 20.8
02:15 1011 29.85 840 24.81 -3.6 25.6 82 -6.3 20.7
02:20 1011 29.85 840 24.81 -3.6 25.6 82 -6.3 20.7
02:25 1011 29.85 840 24.81 -3.6 25.5 82 -6.3 20.7
02:30 1011 29.85 840 24.81 -3.6 25.5 81 -6.4 20.5
02:35 1011 29.85 840 24.81 -3.6 25.5 82 -6.3 20.7
02:40 1011 29.85 840 24.81 -3.7 25.3 82 -6.4 20.5
02:45 1011 29.85 840 24.81 -3.8 25.1 83 -6.4 20.5
02:50 1011 29.85 840 24.81 -3.9 25 83 -6.4 20.5
02:55 1011 29.85 840 24.81 -3.9 25 82 -6.4 20.4
03:00 1011 29.85 840 24.81 -3.9 25 82 -6.5 20.3
03:05 1011 29.85 840 24.81 -3.9 25 82 -6.5 20.3
03:10 1011 29.85 840 24.81 -3.9 24.9 82 -6.5 20.3
03:15 1011 29.85 840 24.81 -4 24.9 82 -6.6 20.2
03:20 1011 29.85 840 24.81 -4 24.8 82 -6.6 20.1
03:25 1010 29.83 840 24.81 -4 24.8 82 -6.6 20.1
03:30 1010 29.83 840 24.81 -4.1 24.7 82 -6.6 20.1
03:35 1010 29.83 840 24.81 -4.1 24.6 82 -6.7 19.9
03:40 1010 29.83 840 24.81 -4.1 24.6 82 -6.7 20
03:45 1010 29.83 840 24.81 -4.1 24.6 82 -6.7 19.9
03:50 1010 29.83 840 24.81 -4.2 24.5 82 -6.8 19.8
03:55 1010 29.83 839 24.78 -4.2 24.4 82 -6.8 19.7
04:00 1010 29.83 839 24.78 -4.3 24.3 82 -6.9 19.7
04:05 1010 29.83 839 24.78 -4.3 24.2 82 -6.9 19.6
04:10 1010 29.83 839 24.78 -4.3 24.2 82 -6.9 19.5
04:15 1010 29.83 839 24.78 -4.3 24.2 82 -7 19.5
04:20 1010 29.83 839 24.78 -4.4 24.1 82 -7 19.4
04:25 1010 29.83 839 24.78 -4.4 24.1 82 -7 19.3
04:30 1010 29.83 839 24.78 -4.4 24.2 82 -7.1 19.3
04:35 1010 29.83 839 24.78 -4.4 24.1 82 -7.1 19.3
04:40 1010 29.83 839 24.78 -4.5 24 82 -7.1 19.2
04:45 1010 29.83 839 24.78 -4.4 24.1 81 -7.2 19.1
04:50 1010 29.83 839 24.78 -4.3 24.3 81 -7.1 19.2
04:55 1010 29.83 839 24.78 -4.3 24.2 81 -7.2 19.1
05:00 1010 29.83 839 24.78 -4.3 24.2 81 -7.2 19.1
05:05 1010 29.83 839 24.78 -4.4 24.2 81 -7.2 19.1
05:10 1010 29.83 839 24.78 -4.4 24.1 81 -7.2 19.1
05:15 1010 29.83 839 24.78 -4.3 24.3 80 -7.2 19
05:20 1010 29.83 839 24.78 -4.3 24.3 80 -7.2 19
05:25 1010 29.83 839 24.78 -4.3 24.2 80 -7.3 18.9
05:30 1010 29.83 839 24.78 -4.5 24 81 -7.3 18.8
05:35 1010 29.83 839 24.78 -4.5 23.9 81 -7.3 18.9
05:40 1010 29.83 839 24.78 -4.5 23.9 81 -7.2 19
05:45 1010 29.83 839 24.78 -4.5 23.9 81 -7.3 18.8
05:50 1010 29.83 839 24.78 -4.5 23.8 81 -7.3 18.8
05:55 1010 29.83 839 24.78 -4.6 23.7 81 -7.4 18.8
06:00 1010 29.83 839 24.78 -4.6 23.6 81 -7.4 18.7
06:05 1010 29.83 839 24.78 -4.7 23.6 81 -7.4 18.7
06:10 1010 29.83 839 24.78 -4.6 23.7 81 -7.4 18.6
06:15 1010 29.83 839 24.78 -4.6 23.8 80 -7.4 18.6
06:20 1010 29.83 839 24.78 -4.4 24 80 -7.4 18.7
06:25 1010 29.83 839 24.78 -4.2 24.4 78 -7.5 18.5
06:30 1010 29.83 839 24.78 -4.1 24.6 78 -7.4 18.7
06:35 1010 29.83 839 24.78 -4.1 24.7 78 -7.4 18.6
06:40 1010 29.83 839 24.78 -3.9 25 77 -7.4 18.7
06:45 1010 29.83 839 24.78 -3.7 25.3 76 -7.4 18.8
06:50 1010 29.83 839 24.78 -3.5 25.7 75 -7.4 18.8
06:55 1010 29.83 839 24.78 -3.4 25.8 74 -7.4 18.8
07:00 1010 29.83 839 24.78 -3.3 26.1 74 -7.3 18.8
07:05 1010 29.83 839 24.78 -3.2 26.3 74 -7.2 19
07:10 1010 29.83 839 24.78 -3 26.6 73 -7.2 19
07:15 1010 29.83 839 24.78 -2.8 27 72 -7.1 19.2
07:20 1010 29.83 839 24.78 -2.8 27 72 -7.2 19.1
07:25 1010 29.83 839 24.78 -2.7 27.1 72 -7.1 19.2
07:30 1010 29.83 839 24.78 -2.4 27.7 71 -7 19.4
07:35 1010 29.83 839 24.78 -2.3 27.9 69 -7.1 19.2
07:40 1010 29.83 839 24.78 -2.2 28 70 -7 19.5
07:45 1010 29.83 839 24.78 -2.2 28.1 70 -6.9 19.6
07:50 1010 29.83 839 24.78 -2 28.5 68 -7 19.4
07:55 1010 29.83 839 24.78 -1.7 29 68 -6.9 19.6
08:00 1010 29.83 839 24.78 -1.5 29.2 68 -6.8 19.8
08:05 1010 29.83 839 24.78 -1.5 29.3 67 -6.9 19.6
08:10 1010 29.83 839 24.78 -1.2 29.9 66 -6.7 19.9
08:15 1010 29.83 839 24.78 -0.9 30.5 65 -6.7 20
08:20 1010 29.83 839 24.78 -0.9 30.4 66 -6.4 20.5
08:25 1010 29.83 839 24.78 -0.5 31.1 65 -6.4 20.5
08:30 1010 29.83 839 24.78 -0.5 31.2 62 -6.8 19.7
08:35 1010 29.83 839 24.78 -0.2 31.6 61 -6.9 19.5
08:40 1010 29.83 839 24.78 0.3 32.5 60 -6.6 20.2
08:45 1010 29.83 839 24.78 0.8 33.5 59 -6.3 20.7
08:50 1010 29.83 839 24.78 0.6 33 60 -6.3 20.7
08:55 1010 29.83 839 24.78 0.4 32.7 61 -6.2 20.8
09:00 1010 29.83 839 24.78 0.4 32.7 60 -6.5 20.2
09:05 1010 29.83 839 24.78 0.2 32.3 61 -6.5 20.3
09:10 1010 29.83 839 24.78 0.5 32.9 57 -7 19.5
09:15 1010 29.83 839 24.78 1 33.9 58 -6.4 20.4
09:20 1010 29.83 839 24.78 1.7 35 58 -5.8 21.6
09:25 1010 29.83 839 24.78 1.2 34.1 60 -5.8 21.5
09:30 1010 29.83 839 24.78 1.3 34.4 55 -6.6 20.1
09:35 1010 29.83 839 24.78 1.8 35.3 57 -5.8 21.5
09:40 1010 29.83 839 24.78 1.2 34.1 59 -6 21.2
09:45 1010 29.83 839 24.78 1.8 35.2 54 -6.5 20.3
09:50 1010 29.83 839 24.78 1.6 34.8 56 -6.3 20.7
09:55 1010 29.83 839 24.78 1.4 34.6 56 -6.4 20.5
10:00 1010 29.83 839 24.78 2.8 37.1 52 -6.1 21.1
10:05 1010 29.83 839 24.78 2.6 36.6 53 -6.1 21
10:10 1010 29.83 839 24.78 2.7 36.8 51 -6.4 20.6
10:15 1010 29.83 839 24.78 2.9 37.3 52 -6 21.2
10:20 1010 29.83 839 24.78 2.9 37.1 52 -6 21.1
10:25 1010 29.83 839 24.78 2.8 37 51 -6.4 20.5
10:30 1009 29.8 839 24.78 3 37.3 52 -6 21.2
10:35 1009 29.8 839 24.78 3.6 38.4 50 -5.8 21.5
10:40 1009 29.8 839 24.78 4 39.1 50 -5.5 22.1
10:45 1009 29.8 839 24.78 3.8 38.8 52 -5.2 22.6
10:50 1009 29.8 839 24.78 4.2 39.6 50 -5.4 22.2
10:55 1009 29.8 839 24.78 4.1 39.4 49 -5.6 22
11:00 1009 29.8 839 24.78 3.5 38.4 51 -5.7 21.8
11:05 1009 29.8 839 24.78 3.6 38.5 49 -6.2 20.8
11:10 1009 29.8 839 24.78 4.3 39.7 48 -5.8 21.6
11:15 1009 29.8 839 24.78 5.5 41.9 46 -5.2 22.7
11:20 1009 29.8 838 24.75 4.9 40.7 46 -5.8 21.5
11:25 1009 29.8 838 24.75 5.6 42.1 45 -5.4 22.2
11:30 1009 29.8 838 24.75 5.5 41.9 45 -5.4 22.3
11:35 1009 29.8 838 24.75 5.6 42 47 -4.8 23.3
11:40 1009 29.8 838 24.75 4.8 40.7 48 -5.3 22.5
11:45 1009 29.8 838 24.75 4.8 40.6 46 -6 21.3
11:50 1009 29.8 838 24.75 6.2 43.1 42 -5.7 21.8
11:55 1009 29.8 838 24.75 6.9 44.4 43 -4.9 23.2
12:00 1009 29.8 838 24.75 6.9 44.5 40 -5.8 21.6
12:05 1009 29.8 838 24.75 7.6 45.6 41 -5 23
12:10 1009 29.8 838 24.75 6.9 44.4 43 -4.9 23.2
12:15 1009 29.8 838 24.75 6 42.8 43 -5.7 21.8
12:20 1009 29.8 838 24.75 6.1 43.1 40 -6.5 20.3
12:25 1009 29.8 838 24.75 6.5 43.6 40 -6 21.2
12:30 1009 29.8 838 24.75 6.3 43.3 39 -6.6 20.1
12:35 1009 29.8 838 24.75 6.5 43.7 36 -7.7 18.2
12:40 1009 29.8 838 24.75 6.9 44.4 35 -7.6 18.3
12:45 1009 29.8 838 24.75 6.4 43.5 36 -7.7 18.2
12:50 1009 29.8 838 24.75 6.1 43.1 34 -8.6 16.6
12:55 1009 29.8 838 24.75 6.2 43.2 32 -9.1 15.6
13:00 1009 29.8 838 24.75 6.4 43.5 32 -9.3 15.2
13:05 1009 29.8 838 24.75 6.3 43.3 33 -8.9 16
13:10 1008 29.77 838 24.75 6.1 42.9 34 -8.8 16.1
13:15 1008 29.77 838 24.75 6.5 43.6 35 -7.9 17.8
13:20 1008 29.77 838 24.75 5.9 42.6 34 -8.9 16
13:25 1008 29.77 838 24.75 5.3 41.6 37 -8.1 17.3
13:30 1008 29.77 838 24.75 5.2 41.3 36 -8.8 16.1
13:35 1008 29.77 838 24.75 5.4 41.6 36 -8.4 16.9
13:40 1008 29.77 837 24.72 5.5 41.8 34 -9.3 15.2
13:45 1008 29.77 837 24.72 5.7 42.3 35 -8.7 16.4
13:50 1008 29.77 837 24.72 5.5 41.8 34 -9.2 15.5
13:55 1008 29.77 837 24.72 5.4 41.7 34 -9 15.7
14:00 1008 29.77 837 24.72 5.3 41.5 34 -9.2 15.5
14:05 1008 29.77 837 24.72 5.4 41.7 33 -9.7 14.6
14:10 1008 29.77 837 24.72 5.4 41.8 33 -9.6 14.7
14:15 1008 29.77 837 24.72 5.5 41.8 33 -9.5 14.9
14:20 1008 29.77 837 24.72 5.8 42.5 33 -9.3 15.2
14:25 1008 29.77 837 24.72 5.4 41.8 34 -9.3 15.3
14:30 1008 29.77 837 24.72 5.2 41.4 34 -9.6 14.8
14:35 1008 29.77 837 24.72 4.8 40.6 35 -9.3 15.3
14:40 1008 29.77 837 24.72 4.9 40.9 35 -9.4 15
14:45 1008 29.77 837 24.72 5.1 41.2 34 -9.5 14.8
14:50 1008 29.77 837 24.72 5 41 35 -9.4 15.1
14:55 1008 29.77 837 24.72 5.1 41.2 37 -8.3 17.1
15:00 1008 29.77 837 24.72 4.8 40.7 40 -7.8 18
15:05 1008 29.77 837 24.72 4.5 40.1 42 -7.4 18.6
15:10 1008 29.77 837 24.72 4.4 40 42 -7.3 18.8
15:15 1008 29.77 837 24.72 4.1 39.4 45 -6.8 19.8
15:20 1008 29.77 837 24.72 4.3 39.8 46 -6.4 20.5
15:25 1008 29.77 837 24.72 4.5 40.1 48 -5.7 21.8
15:30 1008 29.77 837 24.72 4.2 39.6 48 -5.7 21.7
15:35 1008 29.77 837 24.72 3.9 39 49 -6 21.2
15:40 1008 29.77 837 24.72 3.9 39.1 50 -5.7 21.8
15:45 1008 29.77 837 24.72 4 39.2 50 -5.5 22
15:50 1008 29.77 837 24.72 4 39.3 51 -5.3 22.4
15:55 1008 29.77 837 24.72 3.9 38.9 51 -5.4 22.2
16:00 1008 29.77 837 24.72 4 39.3 52 -4.9 23.1
16:05 1008 29.77 837 24.72 4.1 39.3 51 -5.2 22.6
16:10 1008 29.77 837 24.72 4 39.2 50 -5.5 22
16:15 1008 29.77 837 24.72 4 39.2 53 -4.7 23.5
16:20 1008 29.77 837 24.72 4 39.2 52 -5.1 22.8
16:25 1008 29.77 837 24.72 3.9 39.1 52 -5 22.9
16:30 1008 29.77 837 24.72 3.9 39.1 53 -4.8 23.4
16:35 1008 29.77 837 24.72 3.9 39 54 -4.5 24
16:40 1008 29.77 837 24.72 3.7 38.7 54 -4.8 23.4
16:45 1008 29.77 837 24.72 3.6 38.4 53 -5.2 22.6
16:50 1008 29.77 837 24.72 3.5 38.2 51 -5.6 21.9
16:55 1008 29.77 837 24.72 3.4 38.1 52 -5.4 22.2
17:00 1008 29.77 837 24.72 3.3 38 53 -5.4 22.3
17:05 1008 29.77 837 24.72 3.4 38.2 52 -5.5 22.1
17:10 1008 29.77 837 24.72 3.5 38.3 52 -5.3 22.4
17:15 1008 29.77 837 24.72 3.6 38.6 51 -5.5 22.1
17:20 1008 29.77 837 24.72 3.6 38.4 53 -5.2 22.6
17:25 1008 29.77 837 24.72 3.5 38.4 53 -5.1 22.8
17:30 1008 29.77 837 24.72 3.4 38.1 55 -4.8 23.3
17:35 1008 29.77 838 24.75 3.2 37.8 57 -4.5 24
17:40 1008 29.77 838 24.75 3.1 37.5 57 -4.5 23.8
17:45 1008 29.77 838 24.75 3 37.4 57 -4.7 23.5
17:50 1008 29.77 838 24.75 2.9 37.3 55 -5.2 22.7
17:55 1008 29.77 838 24.75 2.9 37.2 51 -6.3 20.7
18:00 1008 29.77 838 24.75 2.7 36.9 52 -6.2 20.8
18:05 1008 29.77 838 24.75 2.6 36.6 53 -6.2 20.9
18:10 1008 29.77 838 24.75 2.4 36.4 54 -5.8 21.5
18:15 1008 29.77 838 24.75 2.3 36.1 56 -5.6 21.9
18:20 1008 29.77 838 24.75 2.2 35.9 57 -5.5 22.2
18:25 1008 29.77 838 24.75 2 35.7 58 -5.3 22.4
18:30 1008 29.77 838 24.75 2 35.6 58 -5.4 22.3
18:35 1008 29.77 838 24.75 1.9 35.4 57 -5.7 21.8
18:40 1008 29.77 838 24.75 1.8 35.2 57 -5.9 21.4
18:45 1008 29.77 838 24.75 1.7 35 56 -6.1 21
18:50 1008 29.77 838 24.75 1.6 34.9 56 -6.3 20.6
18:55 1009 29.8 838 24.75 1.5 34.7 56 -6.3 20.7
19:00 1009 29.8 838 24.75 1.4 34.6 56 -6.5 20.4
19:05 1009 29.8 838 24.75 1.4 34.6 56 -6.5 20.2
19:10 1009 29.8 838 24.75 1.4 34.5 57 -6.3 20.7
19:15 1009 29.8 838 24.75 1.2 34.2 58 -6.1 21
19:20 1009 29.8 838 24.75 1.1 34.1 60 -5.8 21.6
19:25 1009 29.8 838 24.75 1 33.7 63 -5.2 22.6
19:30 1009 29.8 838 24.75 0.8 33.4 65 -5.1 22.8
19:35 1009 29.8 838 24.75 0.7 33.2 67 -4.7 23.6
19:40 1009 29.8 838 24.75 0.5 32.9 70 -4.4 24
19:45 1009 29.8 838 24.75 0.4 32.7 71 -4.4 24.1
19:50 1009 29.8 838 24.75 0.2 32.4 71 -4.3 24.2
19:55 1009 29.8 838 24.75 0.1 32.2 71 -4.4 24
20:00 1009 29.8 838 24.75 0.1 32.1 71 -4.5 23.9
20:05 1009 29.8 838 24.75 0 32.1 71 -4.6 23.7
20:10 1009 29.8 838 24.75 0 32 71 -4.7 23.5
20:15 1009 29.8 838 24.75 -0 31.9 72 -4.5 23.9
20:20 1009 29.8 838 24.75 -0.2 31.6 73 -4.4 24
20:25 1009 29.8 838 24.75 -0.2 31.6 74 -4.4 24.1
20:30 1009 29.8 838 24.75 -0.3 31.4 74 -4.4 24.1
20:35 1009 29.8 838 24.75 -0.4 31.3 75 -4.4 24.2
20:40 1009 29.8 838 24.75 -0.5 31 75 -4.4 24
20:45 1009 29.8 838 24.75 -0.5 31 75 -4.4 24
20:50 1009 29.8 838 24.75 -0.6 31 75 -4.5 24
20:55 1009 29.8 838 24.75 -0.6 30.9 75 -4.5 24
21:00 1009 29.8 838 24.75 -0.7 30.7 76 -4.5 24
21:05 1009 29.8 838 24.75 -0.8 30.6 76 -4.5 23.9
21:10 1009 29.8 838 24.75 -0.8 30.5 76 -4.6 23.8
21:15 1009 29.8 838 24.75 -0.8 30.6 75 -4.7 23.5
21:20 1009 29.8 838 24.75 -0.7 30.7 74 -4.9 23.2
21:25 1009 29.8 838 24.75 -0.7 30.8 74 -4.8 23.3
21:30 1009 29.8 838 24.75 -0.8 30.6 75 -4.7 23.6
21:35 1009 29.8 838 24.75 -0.9 30.3 76 -4.6 23.7
21:40 1009 29.8 838 24.75 -1.1 30 77 -4.6 23.7
21:45 1009 29.8 838 24.75 -1.2 29.8 78 -4.6 23.6
21:50 1009 29.8 838 24.75 -1.3 29.7 78 -4.7 23.6
21:55 1009 29.8 838 24.75 -1.3 29.7 78 -4.6 23.6
22:00 1009 29.8 838 24.75 -1.4 29.5 79 -4.6 23.8
22:05 1009 29.8 838 24.75 -1.5 29.4 80 -4.5 24
22:10 1009 29.8 838 24.75 -1.5 29.2 81 -4.4 24
22:15 1009 29.8 838 24.75 -1.6 29.2 81 -4.5 23.9
22:20 1009 29.8 838 24.75 -1.5 29.3 80 -4.6 23.8
22:25 1009 29.8 838 24.75 -1.4 29.4 79 -4.7 23.6
22:30 1009 29.8 838 24.75 -1.4 29.6 78 -4.8 23.4
22:35 1009 29.8 838 24.75 -1.3 29.6 77 -4.8 23.3
22:40 1009 29.8 838 24.75 -1.3 29.7 77 -4.8 23.4
22:45 1009 29.8 838 24.75 -1.2 29.8 76 -5 23
22:50 1009 29.8 838 24.75 -1.2 29.9 76 -4.9 23.1
22:55 1009 29.8 838 24.75 -1.2 29.9 77 -4.8 23.4
23:00 1009 29.8 838 24.75 -1.3 29.7 77 -4.8 23.4
23:05 1009 29.8 838 24.75 -1.3 29.7 78 -4.7 23.6
23:10 1009 29.8 838 24.75 -1.4 29.6 78 -4.6 23.7
23:15 1009 29.8 838 24.75 -1.5 29.4 79 -4.6 23.7
23:20 1009 29.8 838 24.75 -1.6 29.2 80 -4.6 23.6
23:25 1009 29.8 839 24.78 -1.6 29 81 -4.6 23.8
23:30 1009 29.8 838 24.75 -1.7 28.9 81 -4.6 23.8
23:35 1009 29.8 838 24.75 -1.8 28.7 82 -4.5 23.9
23:40 1009 29.8 838 24.75 -2 28.4 83 -4.5 23.9
23:45 1009 29.8 838 24.75 -2.1 28.2 83 -4.5 23.8
23:50 1009 29.8 838 24.75 -2.2 28.1 84 -4.5 23.9
23:55 1009 29.8 838 24.75 -2.2 28 84 -4.7 23.6
24:00 1009 29.8 838 24.75 -2.3 28 83 -4.7 23.6